createdAt,value
2024-05-09T00:00:30.418Z,11.70
2024-05-09T00:03:02.849Z,11.34
2024-05-09T00:05:29.944Z,11.69
2024-05-09T00:07:56.936Z,11.55
2024-05-09T00:10:32.652Z,11.47
2024-05-09T00:13:02.753Z,12.04
2024-05-09T00:15:29.680Z,11.71
2024-05-09T00:17:56.713Z,11.77
2024-05-09T00:20:28.614Z,12.10
2024-05-09T00:23:03.311Z,12.01
2024-05-09T00:25:30.274Z,12.04
2024-05-09T00:27:57.194Z,11.82
2024-05-09T00:30:31.685Z,11.54
2024-05-09T00:33:02.330Z,11.51
2024-05-09T00:35:29.664Z,11.36
2024-05-09T00:37:56.788Z,11.74
2024-05-09T00:40:34.723Z,11.35
2024-05-09T00:43:05.863Z,11.26
2024-05-09T00:45:32.829Z,11.35
2024-05-09T00:47:59.944Z,11.70
2024-05-09T00:50:35.341Z,10.78
2024-05-09T00:53:04.029Z,11.48
2024-05-09T00:55:30.983Z,11.02
2024-05-09T00:57:57.890Z,11.30
2024-05-09T01:00:31.611Z,11.33
2024-05-09T01:03:05.343Z,11.22
2024-05-09T01:05:32.753Z,11.89
2024-05-09T01:07:59.804Z,11.50
2024-05-09T01:10:33.672Z,11.38
2024-05-09T01:13:02.229Z,11.60
2024-05-09T01:15:29.153Z,11.48
2024-05-09T01:17:56.500Z,12.19
2024-05-09T01:20:32.230Z,12.10
2024-05-09T01:23:07.393Z,12.29
2024-05-09T01:25:34.519Z,12.39
2024-05-09T01:28:01.416Z,12.46
2024-05-09T01:30:34.329Z,12.40
2024-05-09T01:33:04.042Z,12.79
2024-05-09T01:35:31.402Z,12.75
2024-05-09T01:37:58.470Z,13.05
2024-05-09T01:40:35.402Z,12.47
2024-05-09T01:43:05.509Z,12.59
2024-05-09T01:45:32.426Z,12.64
2024-05-09T01:47:59.609Z,13.16
2024-05-09T01:50:37.382Z,12.74
2024-05-09T01:53:07.892Z,12.91
2024-05-09T01:55:34.899Z,12.90
2024-05-09T01:58:01.818Z,12.83
2024-05-09T02:00:34.630Z,13.36
2024-05-09T02:03:06.856Z,13.03
2024-05-09T02:05:34.071Z,12.91
2024-05-09T02:08:01.082Z,13.06
2024-05-09T02:10:32.642Z,12.80
2024-05-09T02:13:00.333Z,12.79
2024-05-09T02:15:27.306Z,12.92
2024-05-09T02:17:54.483Z,13.07
2024-05-09T02:22:51.468Z,12.67
2024-05-09T02:25:18.418Z,13.00
2024-05-09T02:27:45.368Z,13.45
2024-05-09T02:30:18.640Z,13.46
2024-05-09T02:32:53.107Z,13.53
2024-05-09T02:35:20.303Z,13.51
2024-05-09T02:37:47.329Z,13.56
2024-05-09T02:40:15.156Z,13.62
2024-05-09T02:42:48.356Z,13.63
2024-05-09T02:45:15.279Z,13.48
2024-05-09T02:47:42.317Z,13.79
2024-05-09T02:50:13.261Z,14.07
2024-05-09T02:52:43.051Z,13.90
2024-05-09T02:55:10.031Z,13.49
2024-05-09T02:57:36.971Z,13.78
2024-05-09T03:00:05.980Z,14.24
2024-05-09T03:02:33.315Z,14.14
2024-05-09T03:05:00.302Z,14.28
2024-05-09T03:07:27.227Z,13.73
2024-05-09T03:09:54.159Z,13.73
2024-05-09T03:12:21.127Z,14.02
2024-05-09T03:14:48.102Z,14.24
2024-05-09T03:17:15.082Z,14.59
2024-05-09T03:19:42.028Z,14.41
2024-05-09T03:22:08.967Z,14.43
2024-05-09T03:24:35.871Z,14.84
2024-05-09T03:27:02.791Z,14.52
2024-05-09T03:29:29.791Z,14.69
2024-05-09T03:31:56.844Z,14.40
2024-05-09T03:34:23.862Z,15.27
2024-05-09T03:36:50.826Z,14.39
2024-05-09T03:39:17.751Z,14.45
2024-05-09T03:41:44.671Z,14.88
2024-05-09T03:44:11.632Z,14.06
2024-05-09T03:46:38.617Z,14.33
2024-05-09T03:49:05.623Z,14.66
2024-05-09T03:51:32.635Z,14.68
2024-05-09T03:53:59.565Z,14.95
2024-05-09T03:56:26.672Z,14.58
2024-05-09T03:58:53.716Z,15.01
2024-05-09T04:01:20.843Z,14.90
2024-05-09T04:03:47.899Z,14.57
2024-05-09T04:06:14.927Z,14.38
2024-05-09T04:08:41.867Z,15.01
2024-05-09T04:11:08.914Z,15.09
2024-05-09T04:13:35.910Z,15.11
2024-05-09T04:16:02.818Z,14.76
2024-05-09T04:18:29.841Z,15.08
2024-05-09T04:20:56.899Z,15.68
2024-05-09T04:23:23.895Z,15.62
2024-05-09T04:25:50.851Z,15.23
2024-05-09T04:28:17.821Z,16.04
2024-05-09T04:30:44.746Z,14.60
2024-05-09T04:33:13.547Z,15.59
2024-05-09T04:35:41.542Z,15.46
2024-05-09T04:38:08.532Z,15.63
2024-05-09T04:40:37.127Z,15.50
2024-05-09T04:43:04.736Z,16.01
2024-05-09T04:45:31.665Z,15.69
2024-05-09T04:47:58.972Z,15.81
2024-05-09T04:50:35.209Z,16.67
2024-05-09T04:53:05.494Z,16.15
2024-05-09T04:55:32.752Z,15.98
2024-05-09T04:57:59.668Z,15.75
2024-05-09T05:00:34.670Z,15.82
2024-05-09T05:03:04.277Z,15.99
2024-05-09T05:05:31.455Z,16.06
2024-05-09T05:07:58.499Z,16.46
2024-05-09T05:10:29.726Z,16.09
2024-05-09T05:13:02.537Z,16.76
2024-05-09T05:15:29.480Z,15.48
2024-05-09T05:17:56.753Z,16.29
2024-05-09T05:20:30.943Z,15.16
2024-05-09T05:23:00.712Z,15.05
2024-05-09T05:25:27.823Z,14.89
2024-05-09T05:27:54.759Z,15.10
2024-05-09T05:30:28.673Z,15.48
2024-05-09T05:32:59.839Z,14.69
2024-05-09T05:35:27.287Z,15.06
2024-05-09T05:37:54.357Z,14.50
2024-05-09T05:40:28.346Z,14.84
2024-05-09T05:43:02.455Z,13.88
2024-05-09T05:45:29.383Z,14.54
2024-05-09T05:47:56.647Z,14.70
2024-05-09T05:50:28.174Z,14.77
2024-05-09T05:53:02.387Z,14.58
2024-05-09T05:55:29.330Z,15.20
2024-05-09T05:57:56.242Z,15.50
2024-05-09T06:00:29.857Z,14.96
2024-05-09T06:03:04.423Z,14.72
2024-05-09T06:05:31.727Z,15.15
2024-05-09T06:07:58.832Z,15.34
2024-05-09T06:10:30.261Z,14.96
2024-05-09T06:13:04.294Z,14.80
2024-05-09T06:15:31.243Z,15.33
2024-05-09T06:17:58.450Z,15.83
2024-05-09T06:20:34.614Z,14.78
2024-05-09T06:23:04.290Z,15.00
2024-05-09T06:25:31.316Z,15.25
2024-05-09T06:27:58.254Z,14.67
2024-05-09T06:30:30.768Z,15.17
2024-05-09T06:33:05.160Z,15.02
2024-05-09T06:35:32.548Z,14.65
2024-05-09T06:37:59.634Z,13.76
2024-05-09T06:40:35.929Z,15.08
2024-05-09T06:43:05.662Z,14.89
2024-05-09T06:45:32.649Z,14.82
2024-05-09T06:47:59.901Z,14.64
2024-05-09T06:50:31.112Z,14.31
2024-05-09T06:53:02.723Z,14.38
2024-05-09T06:55:29.782Z,14.33
2024-05-09T06:57:56.758Z,14.50
2024-05-09T07:00:30.733Z,14.21
2024-05-09T07:03:05.992Z,14.22
2024-05-09T07:05:33.230Z,14.17
2024-05-09T07:08:00.392Z,14.33
2024-05-09T07:10:33.045Z,13.73
2024-05-09T07:13:02.306Z,13.48
2024-05-09T07:15:29.235Z,13.63
2024-05-09T07:17:56.426Z,13.47
2024-05-09T07:20:32.114Z,13.49
2024-05-09T07:23:01.798Z,13.21
2024-05-09T07:25:28.976Z,13.36
2024-05-09T07:27:55.973Z,13.44
2024-05-09T07:30:27.825Z,12.54
2024-05-09T07:33:00.628Z,12.95
2024-05-09T07:35:27.975Z,13.20
2024-05-09T07:37:55.064Z,12.81
2024-05-09T07:40:31.588Z,13.17
2024-05-09T07:43:02.457Z,13.54
2024-05-09T07:45:45.670Z,13.20
2024-05-09T07:49:45.430Z,13.10
2024-05-09T07:53:40.896Z,12.81
2024-05-09T07:56:12.245Z,12.16
2024-05-09T07:58:39.510Z,11.56
2024-05-09T08:01:06.813Z,11.62
2024-05-09T08:03:34.333Z,11.72
2024-05-09T08:06:01.452Z,11.17
2024-05-09T08:08:28.399Z,10.68
2024-05-09T08:10:55.383Z,10.23
2024-05-09T08:13:22.429Z,10.32
2024-05-09T08:15:49.625Z,10.81
2024-05-09T08:18:16.644Z,11.25
2024-05-09T08:20:43.658Z,10.89
2024-05-09T08:23:10.615Z,10.16
2024-05-09T08:25:37.536Z,10.61
2024-05-09T08:28:04.571Z,10.60
2024-05-09T08:30:36.780Z,10.53
2024-05-09T08:33:05.634Z,10.53
2024-05-09T08:35:33.228Z,10.56
2024-05-09T08:38:00.330Z,9.88
2024-05-09T08:40:33.705Z,9.75
2024-05-09T08:43:03.255Z,9.69
2024-05-09T08:45:30.418Z,9.50
2024-05-09T08:47:57.525Z,8.85
2024-05-09T08:50:32.202Z,9.31
2024-05-09T08:53:05.211Z,9.17
2024-05-09T08:55:32.200Z,10.04
2024-05-09T08:57:59.213Z,9.71
2024-05-09T09:00:34.111Z,9.63
2024-05-09T09:03:04.105Z,8.80
2024-05-09T09:05:31.436Z,8.52
2024-05-09T09:07:58.645Z,8.96
2024-05-09T09:10:31.761Z,9.07
2024-05-09T09:13:00.012Z,8.57
2024-05-09T09:15:27.021Z,8.42
2024-05-09T09:17:54.108Z,8.43
2024-05-09T09:20:26.428Z,7.65
2024-05-09T09:23:00.452Z,7.27
2024-05-09T09:25:27.360Z,7.70
2024-05-09T09:27:54.351Z,7.61
2024-05-09T09:30:34.419Z,7.11
2024-05-09T09:33:04.682Z,7.12
2024-05-09T09:35:31.809Z,7.33
2024-05-09T09:37:58.734Z,7.85
2024-05-09T09:40:31.669Z,9.28
2024-05-09T09:43:00.145Z,9.89
2024-05-09T09:45:27.196Z,9.76
2024-05-09T09:47:54.339Z,10.45
2024-05-09T09:50:27.697Z,10.34
2024-05-09T09:53:00.712Z,8.85
2024-05-09T09:55:27.669Z,8.41
2024-05-09T09:57:54.672Z,8.07
2024-05-09T10:00:27.119Z,9.17
2024-05-09T10:02:59.195Z,8.72
2024-05-09T10:05:26.472Z,9.20
2024-05-09T10:07:53.684Z,9.58
2024-05-09T10:10:27.082Z,8.90
2024-05-09T10:12:58.610Z,9.10
2024-05-09T10:15:25.579Z,9.20
2024-05-09T10:17:52.551Z,8.67
2024-05-09T10:20:22.189Z,8.73
2024-05-09T10:22:54.637Z,8.95
2024-05-09T10:25:21.717Z,8.74
2024-05-09T10:27:48.777Z,8.84
2024-05-09T10:30:21.661Z,9.29
2024-05-09T10:32:56.489Z,8.21
2024-05-09T10:35:23.517Z,7.62
2024-05-09T10:37:50.424Z,9.51
2024-05-09T10:40:23.246Z,9.11
2024-05-09T10:42:55.754Z,8.73
2024-05-09T10:45:22.664Z,8.34
2024-05-09T10:47:49.693Z,7.40
2024-05-09T10:50:22.625Z,6.48
2024-05-09T10:52:55.540Z,5.72
2024-05-09T10:55:22.521Z,5.16
2024-05-09T10:57:49.645Z,7.35
2024-05-09T11:00:26.989Z,6.56
2024-05-09T11:02:57.420Z,6.01
2024-05-09T11:05:24.595Z,5.53
2024-05-09T11:07:51.581Z,6.08
2024-05-09T11:10:27.095Z,5.55
2024-05-09T11:12:58.751Z,5.58
2024-05-09T11:15:25.684Z,5.93
2024-05-09T11:17:52.769Z,5.26
2024-05-09T11:20:26.717Z,6.30
2024-05-09T11:22:56.664Z,6.02
2024-05-09T11:25:23.623Z,5.39
2024-05-09T11:27:50.639Z,5.80
2024-05-09T11:30:24.255Z,5.82
2024-05-09T11:32:57.055Z,5.89
2024-05-09T11:35:24.055Z,6.04
2024-05-09T11:37:51.000Z,6.53
2024-05-09T11:40:25.210Z,5.96
2024-05-09T11:42:55.448Z,5.25
2024-05-09T11:45:22.403Z,5.45
2024-05-09T11:47:49.539Z,5.80
2024-05-09T11:50:26.675Z,5.53
2024-05-09T11:52:57.108Z,6.00
2024-05-09T11:55:27.422Z,5.77
2024-05-09T11:57:55.364Z,5.73
2024-05-09T12:00:29.694Z,5.72
2024-05-09T12:03:03.511Z,6.15
2024-05-09T12:05:30.561Z,5.52
2024-05-09T12:07:57.582Z,5.26
2024-05-09T12:10:32.555Z,4.91
2024-05-09T12:13:02.687Z,5.39
2024-05-09T12:15:30.324Z,5.09
2024-05-09T12:17:59.952Z,5.33
2024-05-09T12:20:35.677Z,5.28
2024-05-09T12:23:05.630Z,5.10
2024-05-09T12:25:32.628Z,4.73
2024-05-09T12:27:59.677Z,4.40
2024-05-09T12:30:35.426Z,4.68
2024-05-09T12:33:06.127Z,4.97
2024-05-09T12:35:33.336Z,4.72
2024-05-09T12:38:00.399Z,4.82
2024-05-09T12:40:35.452Z,4.58
2024-05-09T12:43:05.331Z,4.72
2024-05-09T12:45:32.566Z,4.77
2024-05-09T12:47:59.727Z,4.79
2024-05-09T12:50:32.434Z,4.32
2024-05-09T12:53:01.462Z,4.08
2024-05-09T12:55:31.819Z,4.42
2024-05-09T12:58:04.525Z,4.56
2024-05-09T13:00:34.061Z,4.26
2024-05-09T13:03:01.780Z,4.38
2024-05-09T13:05:29.517Z,4.14
2024-05-09T13:07:57.279Z,3.96
2024-05-09T13:10:31.177Z,4.16
2024-05-09T13:13:00.486Z,4.14
2024-05-09T13:15:27.978Z,4.13
2024-05-09T13:17:57.912Z,3.89
2024-05-09T13:20:32.689Z,4.04
2024-05-09T13:23:02.053Z,4.40
2024-05-09T13:25:29.067Z,4.40
2024-05-09T13:27:56.056Z,4.00
2024-05-09T13:30:29.755Z,4.10
2024-05-09T13:33:05.903Z,4.02
2024-05-09T13:35:33.393Z,4.29
2024-05-09T13:38:00.326Z,4.64
2024-05-09T13:40:33.094Z,4.31
2024-05-09T13:43:02.511Z,4.47
2024-05-09T13:45:29.617Z,4.19
2024-05-09T13:47:56.980Z,4.32
2024-05-09T13:50:33.020Z,3.98
2024-05-09T13:53:02.893Z,4.21
2024-05-09T13:55:29.824Z,4.04
2024-05-09T13:57:56.887Z,3.89
2024-05-09T14:02:53.758Z,4.01
2024-05-09T14:05:20.923Z,4.37
2024-05-09T14:07:48.025Z,4.42
2024-05-09T14:10:22.694Z,4.30
2024-05-09T14:12:53.017Z,4.58
2024-05-09T14:15:19.957Z,4.00
2024-05-09T14:17:46.920Z,4.13
2024-05-09T14:20:16.717Z,3.77
2024-05-09T14:22:50.202Z,3.85
2024-05-09T14:29:42.153Z,4.15
2024-05-09T14:32:09.073Z,4.25
2024-05-09T14:34:36.092Z,4.31
2024-05-09T14:37:03.165Z,3.88
2024-05-09T14:39:30.142Z,4.10
2024-05-09T14:44:38.561Z,3.90
2024-05-09T14:47:05.588Z,4.35
2024-05-09T14:49:32.544Z,4.11
2024-05-09T14:51:59.550Z,4.33
2024-05-09T14:54:26.561Z,3.74
2024-05-09T14:56:54.452Z,4.29
2024-05-09T14:59:24.354Z,4.21
2024-05-09T15:01:51.510Z,3.99
2024-05-09T15:04:18.921Z,3.62
2024-05-09T15:06:47.163Z,4.22
2024-05-09T15:09:15.124Z,4.16
2024-05-09T15:11:42.450Z,4.04
2024-05-09T15:14:09.567Z,4.11
2024-05-09T15:16:36.529Z,4.24
2024-05-09T15:19:06.689Z,4.16
2024-05-09T15:21:33.715Z,4.29
2024-05-09T15:24:03.655Z,4.37
2024-05-09T15:26:30.562Z,4.68
2024-05-09T15:28:58.859Z,4.65
2024-05-09T15:31:26.923Z,5.12
2024-05-09T15:33:57.331Z,3.95
2024-05-09T15:36:27.287Z,3.77
2024-05-09T15:38:54.292Z,3.77
2024-05-09T15:41:21.276Z,4.33
2024-05-09T15:43:48.241Z,4.92
2024-05-09T15:46:15.235Z,4.71
2024-05-09T15:48:44.630Z,4.75
2024-05-09T15:51:12.323Z,4.58
2024-05-09T15:53:42.265Z,4.47
2024-05-09T15:56:09.241Z,4.57
2024-05-09T15:58:36.154Z,4.39
2024-05-09T16:01:03.220Z,4.48
2024-05-09T16:03:30.516Z,4.45
2024-05-09T16:05:57.685Z,4.05
2024-05-09T16:08:24.910Z,4.26
2024-05-09T16:10:52.021Z,4.23
2024-05-09T16:13:19.454Z,4.24
2024-05-09T16:15:46.984Z,3.91
2024-05-09T16:18:20.109Z,4.13
2024-05-09T16:20:50.062Z,4.24
2024-05-09T16:23:17.509Z,4.28
2024-05-09T16:25:44.540Z,4.20
2024-05-09T16:28:11.508Z,4.70
2024-05-09T16:30:39.111Z,4.71
2024-05-09T16:33:06.596Z,4.79
2024-05-09T16:35:35.194Z,4.50
2024-05-09T16:40:40.409Z,5.20
2024-05-09T16:43:09.232Z,5.26
2024-05-09T16:45:37.092Z,5.84
2024-05-09T16:48:04.646Z,8.51
2024-05-09T16:50:34.235Z,6.44
2024-05-09T16:53:04.110Z,5.60
2024-05-09T16:55:31.592Z,4.88
2024-05-09T16:57:58.668Z,5.09
2024-05-09T17:00:36.488Z,4.43
2024-05-09T17:03:12.355Z,3.99
2024-05-09T17:05:43.499Z,5.10
2024-05-09T17:08:10.658Z,4.71
2024-05-09T17:10:37.784Z,3.84
2024-05-09T17:13:07.459Z,4.00
2024-05-09T17:15:36.060Z,4.02
2024-05-09T17:18:03.887Z,3.80
2024-05-09T17:20:34.722Z,4.05
2024-05-09T17:23:04.176Z,3.95
2024-05-09T17:25:31.491Z,3.70
2024-05-09T17:27:58.545Z,3.92
2024-05-09T17:30:32.280Z,7.08
2024-05-09T17:33:03.204Z,9.58
2024-05-09T17:35:33.252Z,4.32
2024-05-09T17:38:00.490Z,3.59
2024-05-09T17:40:32.780Z,3.47
2024-05-09T17:43:03.080Z,3.58
2024-05-09T17:45:33.672Z,4.55
2024-05-09T17:48:01.146Z,5.54
2024-05-09T17:50:35.072Z,5.19
2024-05-09T17:53:04.149Z,5.26
2024-05-09T17:55:31.304Z,5.85
2024-05-09T17:57:58.569Z,4.66
2024-05-09T18:00:36.313Z,4.13
2024-05-09T18:03:07.060Z,3.94
2024-05-09T18:05:34.311Z,4.37
2024-05-09T18:08:01.289Z,4.34
2024-05-09T18:10:35.220Z,3.82
2024-05-09T18:13:05.480Z,4.18
2024-05-09T18:15:36.241Z,3.80
2024-05-09T18:18:03.808Z,3.68
2024-05-09T18:20:40.680Z,3.81
2024-05-09T18:23:11.766Z,3.68
2024-05-09T18:25:38.309Z,3.76
2024-05-09T18:28:07.246Z,3.65
2024-05-09T18:30:35.902Z,3.42
2024-05-09T18:33:04.036Z,3.53
2024-05-09T18:35:31.041Z,3.62
2024-05-09T18:37:57.616Z,3.58
2024-05-09T18:40:32.533Z,3.77
2024-05-09T18:43:02.547Z,3.61
2024-05-09T18:45:29.245Z,3.75
2024-05-09T18:47:58.652Z,3.54
2024-05-09T18:50:34.014Z,3.65
2024-05-09T18:53:04.246Z,3.76
2024-05-09T18:55:30.784Z,4.01
2024-05-09T18:57:57.376Z,3.67
2024-05-09T19:00:33.244Z,3.89
2024-05-09T19:03:03.671Z,3.67
2024-05-09T19:05:30.612Z,3.86
2024-05-09T19:07:57.411Z,3.72
2024-05-09T19:10:28.719Z,3.96
2024-05-09T19:12:58.889Z,3.72
2024-05-09T19:15:28.598Z,3.82
2024-05-09T19:17:55.279Z,3.95
2024-05-09T19:20:28.609Z,4.12
2024-05-09T19:23:00.066Z,3.86
2024-05-09T19:25:28.001Z,3.74
2024-05-09T19:27:55.351Z,3.77
2024-05-09T19:30:30.074Z,4.00
2024-05-09T19:33:04.834Z,4.11
2024-05-09T19:35:31.595Z,4.07
2024-05-09T19:37:58.168Z,4.14
2024-05-09T19:40:31.799Z,4.19
2024-05-09T19:43:00.412Z,4.29
2024-05-09T19:45:27.133Z,4.22
2024-05-09T19:47:53.855Z,4.49
2024-05-09T19:50:32.097Z,4.36
2024-05-09T19:53:06.448Z,4.52
2024-05-09T19:55:32.989Z,4.40
2024-05-09T19:58:04.895Z,4.26
2024-05-09T20:00:35.909Z,4.62
2024-05-09T20:03:04.438Z,4.51
2024-05-09T20:05:31.752Z,4.63
2024-05-09T20:07:58.392Z,4.36
2024-05-09T20:10:31.345Z,4.55
2024-05-09T20:13:00.124Z,4.48
2024-05-09T20:15:26.893Z,4.65
2024-05-09T20:17:56.977Z,4.33
2024-05-09T20:20:32.671Z,4.62
2024-05-09T20:23:04.613Z,4.70
2024-05-09T20:25:31.161Z,5.02
2024-05-09T20:27:58.153Z,4.65
2024-05-09T20:30:31.419Z,4.71
2024-05-09T20:33:00.513Z,4.93
2024-05-09T20:35:27.731Z,4.77
2024-05-09T20:37:54.775Z,5.00
2024-05-09T20:40:28.915Z,4.57
2024-05-09T20:43:00.124Z,4.55
2024-05-09T20:45:27.223Z,5.07
2024-05-09T20:47:54.359Z,4.86
2024-05-09T20:50:29.052Z,4.86
2024-05-09T20:53:03.840Z,4.81
2024-05-09T20:55:30.836Z,4.92
2024-05-09T20:57:57.931Z,4.64
2024-05-09T21:00:34.548Z,4.57
2024-05-09T21:03:07.013Z,4.47
2024-05-09T21:05:35.086Z,4.63
2024-05-09T21:08:02.749Z,5.15
2024-05-09T21:10:32.579Z,4.86
2024-05-09T21:13:01.000Z,4.98
2024-05-09T21:15:28.054Z,5.13
2024-05-09T21:17:55.190Z,4.69
2024-05-09T21:20:28.611Z,4.85
2024-05-09T21:22:58.081Z,4.85
2024-05-09T21:25:25.105Z,5.11
2024-05-09T21:27:52.198Z,5.04
2024-05-09T21:30:31.180Z,4.91
2024-05-09T21:33:05.865Z,5.25
2024-05-09T21:35:33.042Z,4.96
2024-05-09T21:38:00.047Z,4.89
2024-05-09T21:40:33.815Z,5.20
2024-05-09T21:43:02.876Z,5.13
2024-05-09T21:45:29.907Z,4.85
2024-05-09T21:47:56.974Z,5.00
2024-05-09T21:50:31.864Z,5.58
2024-05-09T21:53:06.321Z,5.49
2024-05-09T21:55:33.530Z,4.96
2024-05-09T21:58:00.720Z,5.30
2024-05-09T22:00:35.111Z,5.23
2024-05-09T22:03:04.907Z,5.16
2024-05-09T22:05:32.244Z,5.06
2024-05-09T22:07:59.443Z,5.35
2024-05-09T22:10:32.594Z,5.08
2024-05-09T22:13:02.149Z,4.99
2024-05-09T22:15:29.266Z,4.80
2024-05-09T22:17:57.370Z,4.61
2024-05-09T22:20:33.505Z,4.85
2024-05-09T22:23:04.527Z,4.76
2024-05-09T22:25:32.338Z,5.25
2024-05-09T22:27:59.827Z,5.20
2024-05-09T22:30:35.563Z,5.72
2024-05-09T22:33:06.070Z,5.72
2024-05-09T22:35:32.859Z,5.44
2024-05-09T22:37:59.466Z,5.57
2024-05-09T22:40:38.039Z,5.36
2024-05-09T22:43:12.814Z,5.22
2024-05-09T22:45:39.725Z,5.25
2024-05-09T22:48:06.495Z,5.59
2024-05-09T22:50:33.864Z,5.15
2024-05-09T22:53:00.682Z,5.03
2024-05-09T22:55:27.332Z,5.05
2024-05-09T22:57:53.966Z,4.93
2024-05-09T23:00:29.200Z,4.66
2024-05-09T23:02:58.552Z,5.18
2024-05-09T23:05:25.193Z,5.09
2024-05-09T23:07:51.800Z,5.12
2024-05-09T23:10:25.180Z,5.36
2024-05-09T23:12:58.614Z,5.01
2024-05-09T23:15:25.231Z,5.29
2024-05-09T23:17:52.009Z,5.03
2024-05-09T23:20:29.633Z,5.27
2024-05-09T23:23:03.152Z,5.04
2024-05-09T23:25:29.685Z,5.19
2024-05-09T23:27:56.255Z,4.66
2024-05-09T23:30:33.054Z,4.85
2024-05-09T23:33:04.336Z,4.91
2024-05-09T23:35:31.426Z,5.19
2024-05-09T23:37:58.368Z,4.81
2024-05-09T23:40:36.730Z,5.01
2024-05-09T23:43:07.087Z,4.73
2024-05-09T23:45:34.566Z,5.08
2024-05-09T23:48:01.967Z,4.97
2024-05-09T23:52:58.813Z,5.04
2024-05-09T23:55:25.795Z,4.77
2024-05-09T23:57:52.782Z,4.95
